sensor_id;sensor_type;location;lat;lon;timestamp;P1;durP1;ratioP1;P2;durP2;ratioP2
5674;SDS011;2860;54.284;10.158;2022-10-16T00:01:06;24.70;;;13.88;;
5674;SDS011;2860;54.284;10.158;2022-10-16T00:03:36;22.88;;;13.95;;
5674;SDS011;2860;54.284;10.158;2022-10-16T00:06:02;26.40;;;14.10;;
5674;SDS011;2860;54.284;10.158;2022-10-16T00:08:28;30.27;;;14.95;;
5674;SDS011;2860;54.284;10.158;2022-10-16T00:10:58;24.95;;;14.30;;
5674;SDS011;2860;54.284;10.158;2022-10-16T00:13:28;29.15;;;14.75;;
5674;SDS011;2860;54.284;10.158;2022-10-16T00:15:55;29.63;;;13.25;;
5674;SDS011;2860;54.284;10.158;2022-10-16T00:18:21;26.58;;;12.60;;
5674;SDS011;2860;54.284;10.158;2022-10-16T00:20:47;28.08;;;12.80;;
5674;SDS011;2860;54.284;10.158;2022-10-16T00:23:12;26.50;;;14.73;;
5674;SDS011;2860;54.284;10.158;2022-10-16T00:25:38;31.58;;;14.38;;
5674;SDS011;2860;54.284;10.158;2022-10-16T00:28:03;25.40;;;12.48;;
5674;SDS011;2860;54.284;10.158;2022-10-16T00:30:29;28.65;;;14.07;;
5674;SDS011;2860;54.284;10.158;2022-10-16T00:32:55;26.77;;;13.30;;
5674;SDS011;2860;54.284;10.158;2022-10-16T00:35:20;19.63;;;13.15;;
5674;SDS011;2860;54.284;10.158;2022-10-16T00:37:46;24.17;;;12.93;;
5674;SDS011;2860;54.284;10.158;2022-10-16T00:40:12;33.30;;;13.77;;
5674;SDS011;2860;54.284;10.158;2022-10-16T00:42:37;28.40;;;13.95;;
5674;SDS011;2860;54.284;10.158;2022-10-16T00:45:03;21.83;;;12.10;;
5674;SDS011;2860;54.284;10.158;2022-10-16T00:47:31;31.88;;;13.30;;
5674;SDS011;2860;54.284;10.158;2022-10-16T00:50:02;23.50;;;12.15;;
5674;SDS011;2860;54.284;10.158;2022-10-16T00:52:30;21.17;;;11.27;;
5674;SDS011;2860;54.284;10.158;2022-10-16T00:54:56;21.17;;;11.60;;
5674;SDS011;2860;54.284;10.158;2022-10-16T00:57:22;28.65;;;16.10;;
5674;SDS011;2860;54.284;10.158;2022-10-16T00:59:48;27.63;;;12.93;;
5674;SDS011;2860;54.284;10.158;2022-10-16T01:02:14;27.45;;;12.45;;
5674;SDS011;2860;54.284;10.158;2022-10-16T01:04:42;30.13;;;11.88;;
5674;SDS011;2860;54.284;10.158;2022-10-16T01:15:23;21.60;;;11.30;;
5674;SDS011;2860;54.284;10.158;2022-10-16T01:20:29;19.92;;;11.48;;
5674;SDS011;2860;54.284;10.158;2022-10-16T01:22:59;20.90;;;11.60;;
5674;SDS011;2860;54.284;10.158;2022-10-16T01:28:36;31.40;;;14.60;;
5674;SDS011;2860;54.284;10.158;2022-10-16T01:31:10;22.42;;;11.63;;
5674;SDS011;2860;54.284;10.158;2022-10-16T01:33:43;23.83;;;12.82;;
5674;SDS011;2860;54.284;10.158;2022-10-16T01:36:16;23.95;;;11.63;;
5674;SDS011;2860;54.284;10.158;2022-10-16T01:38:49;24.35;;;12.07;;
5674;SDS011;2860;54.284;10.158;2022-10-16T01:41:20;22.70;;;13.10;;
5674;SDS011;2860;54.284;10.158;2022-10-16T01:43:53;28.73;;;11.90;;
5674;SDS011;2860;54.284;10.158;2022-10-16T01:46:27;29.02;;;11.85;;
5674;SDS011;2860;54.284;10.158;2022-10-16T01:48:55;18.40;;;11.85;;
5674;SDS011;2860;54.284;10.158;2022-10-16T01:51:21;27.08;;;12.90;;
5674;SDS011;2860;54.284;10.158;2022-10-16T01:53:50;25.58;;;12.38;;
5674;SDS011;2860;54.284;10.158;2022-10-16T01:56:19;26.13;;;13.48;;
5674;SDS011;2860;54.284;10.158;2022-10-16T01:58:49;23.92;;;11.90;;
5674;SDS011;2860;54.284;10.158;2022-10-16T02:01:22;25.10;;;12.82;;
5674;SDS011;2860;54.284;10.158;2022-10-16T02:03:50;26.08;;;11.40;;
5674;SDS011;2860;54.284;10.158;2022-10-16T02:06:19;33.63;;;12.63;;
5674;SDS011;2860;54.284;10.158;2022-10-16T02:08:45;27.02;;;12.57;;
5674;SDS011;2860;54.284;10.158;2022-10-16T02:11:11;18.23;;;10.88;;
5674;SDS011;2860;54.284;10.158;2022-10-16T02:13:41;22.67;;;12.40;;
5674;SDS011;2860;54.284;10.158;2022-10-16T02:16:12;26.00;;;11.30;;
5674;SDS011;2860;54.284;10.158;2022-10-16T02:18:38;23.73;;;11.82;;
5674;SDS011;2860;54.284;10.158;2022-10-16T02:21:07;17.30;;;11.52;;
5674;SDS011;2860;54.284;10.158;2022-10-16T02:23:51;24.88;;;11.85;;
5674;SDS011;2860;54.284;10.158;2022-10-16T02:26:46;22.85;;;12.43;;
5674;SDS011;2860;54.284;10.158;2022-10-16T02:29:22;20.90;;;11.93;;
5674;SDS011;2860;54.284;10.158;2022-10-16T02:31:50;28.75;;;13.30;;
5674;SDS011;2860;54.284;10.158;2022-10-16T02:34:20;33.67;;;12.93;;
5674;SDS011;2860;54.284;10.158;2022-10-16T02:36:48;26.80;;;12.00;;
5674;SDS011;2860;54.284;10.158;2022-10-16T02:39:15;40.85;;;13.27;;
5674;SDS011;2860;54.284;10.158;2022-10-16T02:41:43;28.60;;;12.40;;
5674;SDS011;2860;54.284;10.158;2022-10-16T02:44:08;26.13;;;11.88;;
5674;SDS011;2860;54.284;10.158;2022-10-16T02:46:34;25.08;;;13.30;;
5674;SDS011;2860;54.284;10.158;2022-10-16T02:48:59;24.23;;;12.43;;
5674;SDS011;2860;54.284;10.158;2022-10-16T02:51:25;27.98;;;12.45;;
5674;SDS011;2860;54.284;10.158;2022-10-16T02:53:50;23.75;;;10.95;;
5674;SDS011;2860;54.284;10.158;2022-10-16T02:56:16;23.55;;;10.85;;
5674;SDS011;2860;54.284;10.158;2022-10-16T02:58:41;20.20;;;11.35;;
5674;SDS011;2860;54.284;10.158;2022-10-16T03:01:07;22.67;;;11.52;;
5674;SDS011;2860;54.284;10.158;2022-10-16T03:03:33;25.52;;;12.02;;
5674;SDS011;2860;54.284;10.158;2022-10-16T03:05:58;24.48;;;10.68;;
5674;SDS011;2860;54.284;10.158;2022-10-16T03:08:24;20.90;;;10.80;;
5674;SDS011;2860;54.284;10.158;2022-10-16T03:10:50;20.33;;;10.00;;
5674;SDS011;2860;54.284;10.158;2022-10-16T03:13:16;21.05;;;10.20;;
5674;SDS011;2860;54.284;10.158;2022-10-16T03:15:42;17.88;;;9.60;;
5674;SDS011;2860;54.284;10.158;2022-10-16T03:18:08;21.42;;;9.48;;
5674;SDS011;2860;54.284;10.158;2022-10-16T03:20:34;30.73;;;10.32;;
5674;SDS011;2860;54.284;10.158;2022-10-16T03:22:59;22.05;;;9.32;;
5674;SDS011;2860;54.284;10.158;2022-10-16T03:25:25;19.73;;;9.15;;
5674;SDS011;2860;54.284;10.158;2022-10-16T03:27:50;20.00;;;9.30;;
5674;SDS011;2860;54.284;10.158;2022-10-16T03:30:16;11.75;;;7.82;;
5674;SDS011;2860;54.284;10.158;2022-10-16T03:32:42;24.38;;;8.07;;
5674;SDS011;2860;54.284;10.158;2022-10-16T03:35:09;17.05;;;8.80;;
5674;SDS011;2860;54.284;10.158;2022-10-16T03:37:34;13.20;;;8.10;;
5674;SDS011;2860;54.284;10.158;2022-10-16T03:40:00;17.23;;;8.63;;
5674;SDS011;2860;54.284;10.158;2022-10-16T03:42:26;17.50;;;6.78;;
5674;SDS011;2860;54.284;10.158;2022-10-16T03:44:52;16.13;;;7.78;;
5674;SDS011;2860;54.284;10.158;2022-10-16T03:47:17;9.68;;;6.20;;
5674;SDS011;2860;54.284;10.158;2022-10-16T03:49:46;9.70;;;6.40;;
5674;SDS011;2860;54.284;10.158;2022-10-16T03:52:12;17.38;;;7.13;;
5674;SDS011;2860;54.284;10.158;2022-10-16T03:54:38;23.73;;;7.13;;
5674;SDS011;2860;54.284;10.158;2022-10-16T03:57:03;15.50;;;6.65;;
5674;SDS011;2860;54.284;10.158;2022-10-16T03:59:29;22.55;;;7.57;;
5674;SDS011;2860;54.284;10.158;2022-10-16T04:01:54;12.05;;;7.18;;
5674;SDS011;2860;54.284;10.158;2022-10-16T04:04:20;10.52;;;6.55;;
5674;SDS011;2860;54.284;10.158;2022-10-16T04:06:45;15.18;;;6.65;;
5674;SDS011;2860;54.284;10.158;2022-10-16T04:09:11;8.32;;;6.28;;
5674;SDS011;2860;54.284;10.158;2022-10-16T04:11:36;11.13;;;5.45;;
5674;SDS011;2860;54.284;10.158;2022-10-16T04:14:02;8.07;;;5.72;;
5674;SDS011;2860;54.284;10.158;2022-10-16T04:16:27;9.38;;;6.10;;
5674;SDS011;2860;54.284;10.158;2022-10-16T04:18:53;16.48;;;6.07;;
5674;SDS011;2860;54.284;10.158;2022-10-16T04:21:18;8.25;;;5.07;;
5674;SDS011;2860;54.284;10.158;2022-10-16T04:23:44;8.68;;;5.32;;
5674;SDS011;2860;54.284;10.158;2022-10-16T04:26:09;9.25;;;5.95;;
5674;SDS011;2860;54.284;10.158;2022-10-16T04:28:35;15.80;;;5.00;;
5674;SDS011;2860;54.284;10.158;2022-10-16T04:31:03;8.70;;;5.38;;
5674;SDS011;2860;54.284;10.158;2022-10-16T04:33:29;5.60;;;5.18;;
5674;SDS011;2860;54.284;10.158;2022-10-16T04:35:58;12.60;;;5.05;;
5674;SDS011;2860;54.284;10.158;2022-10-16T04:38:25;14.25;;;5.65;;
5674;SDS011;2860;54.284;10.158;2022-10-16T04:40:51;7.45;;;4.35;;
5674;SDS011;2860;54.284;10.158;2022-10-16T04:43:17;15.50;;;4.93;;
5674;SDS011;2860;54.284;10.158;2022-10-16T04:45:43;7.13;;;4.82;;
5674;SDS011;2860;54.284;10.158;2022-10-16T04:48:08;9.30;;;6.20;;
5674;SDS011;2860;54.284;10.158;2022-10-16T04:50:34;9.23;;;5.25;;
5674;SDS011;2860;54.284;10.158;2022-10-16T04:52:59;11.30;;;5.05;;
5674;SDS011;2860;54.284;10.158;2022-10-16T04:55:25;9.68;;;5.78;;
5674;SDS011;2860;54.284;10.158;2022-10-16T04:57:50;9.02;;;5.13;;
5674;SDS011;2860;54.284;10.158;2022-10-16T05:00:16;7.13;;;4.35;;
5674;SDS011;2860;54.284;10.158;2022-10-16T05:02:41;14.13;;;5.00;;
5674;SDS011;2860;54.284;10.158;2022-10-16T05:05:07;16.30;;;5.43;;
5674;SDS011;2860;54.284;10.158;2022-10-16T05:07:33;6.90;;;4.28;;
5674;SDS011;2860;54.284;10.158;2022-10-16T05:09:58;5.88;;;4.57;;
5674;SDS011;2860;54.284;10.158;2022-10-16T05:12:24;8.65;;;4.68;;
5674;SDS011;2860;54.284;10.158;2022-10-16T05:14:49;7.13;;;4.60;;
5674;SDS011;2860;54.284;10.158;2022-10-16T05:17:15;4.70;;;4.30;;
5674;SDS011;2860;54.284;10.158;2022-10-16T05:19:40;8.40;;;5.43;;
5674;SDS011;2860;54.284;10.158;2022-10-16T05:22:06;8.52;;;3.92;;
5674;SDS011;2860;54.284;10.158;2022-10-16T05:24:32;5.53;;;5.00;;
5674;SDS011;2860;54.284;10.158;2022-10-16T05:26:57;4.10;;;3.83;;
5674;SDS011;2860;54.284;10.158;2022-10-16T05:29:23;9.25;;;4.60;;
5674;SDS011;2860;54.284;10.158;2022-10-16T05:31:51;8.80;;;3.92;;
5674;SDS011;2860;54.284;10.158;2022-10-16T05:34:18;7.30;;;4.50;;
5674;SDS011;2860;54.284;10.158;2022-10-16T05:36:44;10.40;;;4.07;;
5674;SDS011;2860;54.284;10.158;2022-10-16T05:39:10;7.18;;;3.53;;
5674;SDS011;2860;54.284;10.158;2022-10-16T05:41:36;6.72;;;4.38;;
5674;SDS011;2860;54.284;10.158;2022-10-16T05:44:04;6.00;;;3.88;;
5674;SDS011;2860;54.284;10.158;2022-10-16T05:46:30;5.07;;;3.58;;
5674;SDS011;2860;54.284;10.158;2022-10-16T05:48:56;4.00;;;3.67;;
5674;SDS011;2860;54.284;10.158;2022-10-16T05:51:22;5.78;;;3.80;;
5674;SDS011;2860;54.284;10.158;2022-10-16T05:53:47;12.10;;;4.15;;
5674;SDS011;2860;54.284;10.158;2022-10-16T05:56:13;9.73;;;3.10;;
5674;SDS011;2860;54.284;10.158;2022-10-16T05:58:38;4.93;;;3.05;;
5674;SDS011;2860;54.284;10.158;2022-10-16T06:01:10;3.50;;;3.10;;
5674;SDS011;2860;54.284;10.158;2022-10-16T06:03:37;8.93;;;3.78;;
5674;SDS011;2860;54.284;10.158;2022-10-16T06:06:07;3.22;;;3.13;;
5674;SDS011;2860;54.284;10.158;2022-10-16T06:08:34;12.60;;;4.53;;
5674;SDS011;2860;54.284;10.158;2022-10-16T06:11:03;10.82;;;3.70;;
5674;SDS011;2860;54.284;10.158;2022-10-16T06:13:31;5.75;;;3.85;;
5674;SDS011;2860;54.284;10.158;2022-10-16T06:15:57;6.25;;;3.35;;
5674;SDS011;2860;54.284;10.158;2022-10-16T06:18:24;3.85;;;3.00;;
5674;SDS011;2860;54.284;10.158;2022-10-16T06:20:50;4.35;;;3.28;;
5674;SDS011;2860;54.284;10.158;2022-10-16T06:23:16;5.10;;;2.85;;
5674;SDS011;2860;54.284;10.158;2022-10-16T06:25:41;11.07;;;3.40;;
5674;SDS011;2860;54.284;10.158;2022-10-16T06:28:07;3.78;;;3.47;;
5674;SDS011;2860;54.284;10.158;2022-10-16T06:30:32;2.60;;;2.58;;
5674;SDS011;2860;54.284;10.158;2022-10-16T06:32:58;5.07;;;3.05;;
5674;SDS011;2860;54.284;10.158;2022-10-16T06:35:23;7.55;;;2.92;;
5674;SDS011;2860;54.284;10.158;2022-10-16T06:37:49;2.72;;;2.70;;
5674;SDS011;2860;54.284;10.158;2022-10-16T06:40:14;3.55;;;2.88;;
5674;SDS011;2860;54.284;10.158;2022-10-16T06:42:40;5.88;;;3.30;;
5674;SDS011;2860;54.284;10.158;2022-10-16T06:45:06;6.80;;;3.00;;
5674;SDS011;2860;54.284;10.158;2022-10-16T06:47:32;4.90;;;3.10;;
5674;SDS011;2860;54.284;10.158;2022-10-16T06:49:58;2.30;;;2.20;;
5674;SDS011;2860;54.284;10.158;2022-10-16T06:52:23;6.20;;;3.22;;
5674;SDS011;2860;54.284;10.158;2022-10-16T06:54:49;4.95;;;2.35;;
5674;SDS011;2860;54.284;10.158;2022-10-16T06:57:15;3.22;;;3.00;;
5674;SDS011;2860;54.284;10.158;2022-10-16T06:59:40;3.75;;;2.92;;
5674;SDS011;2860;54.284;10.158;2022-10-16T07:02:06;2.95;;;2.20;;
5674;SDS011;2860;54.284;10.158;2022-10-16T07:04:33;5.28;;;4.05;;
5674;SDS011;2860;54.284;10.158;2022-10-16T07:07:00;3.55;;;3.05;;
5674;SDS011;2860;54.284;10.158;2022-10-16T07:09:25;3.40;;;3.25;;
5674;SDS011;2860;54.284;10.158;2022-10-16T07:11:51;4.28;;;3.58;;
5674;SDS011;2860;54.284;10.158;2022-10-16T07:14:17;5.95;;;3.38;;
5674;SDS011;2860;54.284;10.158;2022-10-16T07:16:44;4.28;;;3.83;;
5674;SDS011;2860;54.284;10.158;2022-10-16T07:19:10;3.15;;;2.90;;
5674;SDS011;2860;54.284;10.158;2022-10-16T07:21:37;5.07;;;3.13;;
5674;SDS011;2860;54.284;10.158;2022-10-16T07:24:04;3.47;;;3.20;;
5674;SDS011;2860;54.284;10.158;2022-10-16T07:26:32;8.05;;;3.10;;
5674;SDS011;2860;54.284;10.158;2022-10-16T07:28:58;3.78;;;3.42;;
5674;SDS011;2860;54.284;10.158;2022-10-16T07:31:24;4.60;;;3.05;;
5674;SDS011;2860;54.284;10.158;2022-10-16T07:33:50;3.05;;;2.95;;
5674;SDS011;2860;54.284;10.158;2022-10-16T07:36:17;6.15;;;3.20;;
5674;SDS011;2860;54.284;10.158;2022-10-16T07:38:45;6.55;;;2.70;;
5674;SDS011;2860;54.284;10.158;2022-10-16T07:41:12;3.83;;;3.50;;
5674;SDS011;2860;54.284;10.158;2022-10-16T07:43:39;4.00;;;2.67;;
5674;SDS011;2860;54.284;10.158;2022-10-16T07:46:05;4.88;;;2.55;;
5674;SDS011;2860;54.284;10.158;2022-10-16T07:48:31;3.63;;;3.45;;
5674;SDS011;2860;54.284;10.158;2022-10-16T07:50:59;6.97;;;3.25;;
5674;SDS011;2860;54.284;10.158;2022-10-16T07:53:26;4.68;;;3.35;;
5674;SDS011;2860;54.284;10.158;2022-10-16T07:55:52;3.45;;;3.20;;
5674;SDS011;2860;54.284;10.158;2022-10-16T07:58:21;12.27;;;3.42;;
5674;SDS011;2860;54.284;10.158;2022-10-16T08:00:47;5.80;;;3.33;;
5674;SDS011;2860;54.284;10.158;2022-10-16T08:03:12;7.15;;;3.47;;
5674;SDS011;2860;54.284;10.158;2022-10-16T08:05:37;5.03;;;3.58;;
5674;SDS011;2860;54.284;10.158;2022-10-16T08:08:03;4.18;;;3.90;;
5674;SDS011;2860;54.284;10.158;2022-10-16T08:10:29;9.07;;;3.97;;
5674;SDS011;2860;54.284;10.158;2022-10-16T08:12:54;3.97;;;3.78;;
5674;SDS011;2860;54.284;10.158;2022-10-16T08:15:20;4.28;;;3.88;;
5674;SDS011;2860;54.284;10.158;2022-10-16T08:17:54;3.67;;;3.33;;
5674;SDS011;2860;54.284;10.158;2022-10-16T08:20:23;4.82;;;4.05;;
5674;SDS011;2860;54.284;10.158;2022-10-16T08:22:49;9.65;;;3.58;;
5674;SDS011;2860;54.284;10.158;2022-10-16T08:25:14;4.05;;;3.75;;
5674;SDS011;2860;54.284;10.158;2022-10-16T08:27:40;8.68;;;4.10;;
5674;SDS011;2860;54.284;10.158;2022-10-16T08:30:06;6.90;;;4.20;;
5674;SDS011;2860;54.284;10.158;2022-10-16T08:32:32;6.55;;;6.00;;
5674;SDS011;2860;54.284;10.158;2022-10-16T08:34:57;9.85;;;5.93;;
5674;SDS011;2860;54.284;10.158;2022-10-16T08:37:23;14.85;;;4.68;;
5674;SDS011;2860;54.284;10.158;2022-10-16T08:39:48;7.20;;;5.15;;
5674;SDS011;2860;54.284;10.158;2022-10-16T08:42:23;4.68;;;4.28;;
5674;SDS011;2860;54.284;10.158;2022-10-16T08:45:08;4.78;;;4.30;;
5674;SDS011;2860;54.284;10.158;2022-10-16T08:50:32;4.65;;;4.00;;
5674;SDS011;2860;54.284;10.158;2022-10-16T08:53:03;5.28;;;3.67;;
5674;SDS011;2860;54.284;10.158;2022-10-16T08:55:43;8.63;;;3.90;;
5674;SDS011;2860;54.284;10.158;2022-10-16T08:58:12;6.85;;;2.97;;
5674;SDS011;2860;54.284;10.158;2022-10-16T09:00:39;5.50;;;3.30;;
5674;SDS011;2860;54.284;10.158;2022-10-16T09:06:20;4.72;;;3.08;;
5674;SDS011;2860;54.284;10.158;2022-10-16T09:09:19;3.10;;;2.88;;
5674;SDS011;2860;54.284;10.158;2022-10-16T09:12:10;8.23;;;4.43;;
5674;SDS011;2860;54.284;10.158;2022-10-16T09:15:02;5.07;;;3.40;;
5674;SDS011;2860;54.284;10.158;2022-10-16T09:17:41;5.50;;;3.30;;
5674;SDS011;2860;54.284;10.158;2022-10-16T09:25:28;7.88;;;3.97;;
5674;SDS011;2860;54.284;10.158;2022-10-16T09:27:54;7.05;;;3.08;;
5674;SDS011;2860;54.284;10.158;2022-10-16T09:30:21;6.82;;;3.75;;
5674;SDS011;2860;54.284;10.158;2022-10-16T09:32:54;10.15;;;3.65;;
5674;SDS011;2860;54.284;10.158;2022-10-16T09:35:27;7.97;;;3.00;;
5674;SDS011;2860;54.284;10.158;2022-10-16T09:37:56;3.58;;;2.75;;
5674;SDS011;2860;54.284;10.158;2022-10-16T09:42:53;7.00;;;3.35;;
5674;SDS011;2860;54.284;10.158;2022-10-16T09:45:31;5.82;;;2.75;;
5674;SDS011;2860;54.284;10.158;2022-10-16T09:47:57;10.30;;;3.67;;
5674;SDS011;2860;54.284;10.158;2022-10-16T09:50:26;5.00;;;2.53;;
5674;SDS011;2860;54.284;10.158;2022-10-16T09:53:03;3.45;;;3.00;;
5674;SDS011;2860;54.284;10.158;2022-10-16T09:55:30;4.65;;;3.28;;
5674;SDS011;2860;54.284;10.158;2022-10-16T09:57:55;4.63;;;2.70;;
5674;SDS011;2860;54.284;10.158;2022-10-16T10:00:22;6.13;;;3.08;;
5674;SDS011;2860;54.284;10.158;2022-10-16T10:02:49;4.28;;;3.33;;
5674;SDS011;2860;54.284;10.158;2022-10-16T10:05:25;6.03;;;3.30;;
5674;SDS011;2860;54.284;10.158;2022-10-16T10:07:56;5.93;;;3.30;;
5674;SDS011;2860;54.284;10.158;2022-10-16T10:10:34;3.78;;;2.80;;
5674;SDS011;2860;54.284;10.158;2022-10-16T10:13:16;4.63;;;3.67;;
5674;SDS011;2860;54.284;10.158;2022-10-16T10:15:46;3.10;;;2.88;;
5674;SDS011;2860;54.284;10.158;2022-10-16T10:18:15;7.00;;;3.28;;
5674;SDS011;2860;54.284;10.158;2022-10-16T10:20:46;3.65;;;3.35;;
5674;SDS011;2860;54.284;10.158;2022-10-16T10:23:24;3.72;;;2.70;;
5674;SDS011;2860;54.284;10.158;2022-10-16T10:25:56;8.07;;;3.20;;
5674;SDS011;2860;54.284;10.158;2022-10-16T10:28:46;3.08;;;2.38;;
5674;SDS011;2860;54.284;10.158;2022-10-16T10:37:34;2.55;;;2.33;;
5674;SDS011;2860;54.284;10.158;2022-10-16T10:40:28;2.35;;;2.13;;
5674;SDS011;2860;54.284;10.158;2022-10-16T10:43:10;4.40;;;2.05;;
5674;SDS011;2860;54.284;10.158;2022-10-16T10:45:47;4.10;;;1.58;;
5674;SDS011;2860;54.284;10.158;2022-10-16T10:51:01;2.70;;;1.98;;
5674;SDS011;2860;54.284;10.158;2022-10-16T10:53:46;9.38;;;2.10;;
5674;SDS011;2860;54.284;10.158;2022-10-16T10:56:31;6.78;;;1.70;;
5674;SDS011;2860;54.284;10.158;2022-10-16T11:08:17;2.95;;;1.42;;
5674;SDS011;2860;54.284;10.158;2022-10-16T11:10:58;7.45;;;1.60;;
5674;SDS011;2860;54.284;10.158;2022-10-16T11:13:32;3.25;;;2.22;;
5674;SDS011;2860;54.284;10.158;2022-10-16T11:16:14;5.00;;;1.75;;
5674;SDS011;2860;54.284;10.158;2022-10-16T11:18:48;4.93;;;1.50;;
5674;SDS011;2860;54.284;10.158;2022-10-16T11:21:18;5.30;;;1.50;;
5674;SDS011;2860;54.284;10.158;2022-10-16T11:23:51;3.03;;;1.58;;
5674;SDS011;2860;54.284;10.158;2022-10-16T11:26:26;5.30;;;1.40;;
5674;SDS011;2860;54.284;10.158;2022-10-16T11:28:55;4.15;;;1.10;;
5674;SDS011;2860;54.284;10.158;2022-10-16T11:31:30;1.95;;;1.20;;
5674;SDS011;2860;54.284;10.158;2022-10-16T11:36:55;5.07;;;1.17;;
5674;SDS011;2860;54.284;10.158;2022-10-16T11:39:25;4.18;;;1.25;;
5674;SDS011;2860;54.284;10.158;2022-10-16T11:41:55;6.88;;;1.52;;
5674;SDS011;2860;54.284;10.158;2022-10-16T11:49:50;3.13;;;0.88;;
5674;SDS011;2860;54.284;10.158;2022-10-16T11:52:26;3.50;;;1.30;;
5674;SDS011;2860;54.284;10.158;2022-10-16T11:57:56;3.75;;;1.17;;
5674;SDS011;2860;54.284;10.158;2022-10-16T12:01:33;7.78;;;1.10;;
5674;SDS011;2860;54.284;10.158;2022-10-16T12:03:50;3.78;;;1.45;;
5674;SDS011;2860;54.284;10.158;2022-10-16T12:06:30;3.53;;;1.60;;
5674;SDS011;2860;54.284;10.158;2022-10-16T12:09:00;4.10;;;0.95;;
5674;SDS011;2860;54.284;10.158;2022-10-16T12:14:16;6.80;;;1.25;;
5674;SDS011;2860;54.284;10.158;2022-10-16T12:19:19;7.18;;;2.03;;
5674;SDS011;2860;54.284;10.158;2022-10-16T12:21:45;3.92;;;1.20;;
5674;SDS011;2860;54.284;10.158;2022-10-16T12:27:00;1.83;;;0.93;;
5674;SDS011;2860;54.284;10.158;2022-10-16T12:32:05;4.90;;;1.23;;
5674;SDS011;2860;54.284;10.158;2022-10-16T12:34:48;8.20;;;0.95;;
5674;SDS011;2860;54.284;10.158;2022-10-16T12:37:22;5.72;;;1.40;;
5674;SDS011;2860;54.284;10.158;2022-10-16T12:40:23;9.63;;;1.42;;
5674;SDS011;2860;54.284;10.158;2022-10-16T12:42:52;7.22;;;1.42;;
5674;SDS011;2860;54.284;10.158;2022-10-16T12:45:33;6.25;;;1.15;;
5674;SDS011;2860;54.284;10.158;2022-10-16T12:47:59;6.38;;;1.20;;
5674;SDS011;2860;54.284;10.158;2022-10-16T12:50:30;4.00;;;1.95;;
5674;SDS011;2860;54.284;10.158;2022-10-16T12:53:02;11.43;;;1.02;;
5674;SDS011;2860;54.284;10.158;2022-10-16T12:55:43;7.13;;;1.25;;
5674;SDS011;2860;54.284;10.158;2022-10-16T12:59:01;3.22;;;1.52;;
5674;SDS011;2860;54.284;10.158;2022-10-16T13:06:45;5.03;;;1.85;;
5674;SDS011;2860;54.284;10.158;2022-10-16T13:25:20;12.00;;;1.55;;
5674;SDS011;2860;54.284;10.158;2022-10-16T13:28:08;5.20;;;1.38;;
5674;SDS011;2860;54.284;10.158;2022-10-16T13:30:52;8.52;;;2.00;;
5674;SDS011;2860;54.284;10.158;2022-10-16T13:33:21;6.68;;;1.45;;
5674;SDS011;2860;54.284;10.158;2022-10-16T13:36:17;3.75;;;0.93;;
5674;SDS011;2860;54.284;10.158;2022-10-16T13:38:47;2.83;;;1.02;;
5674;SDS011;2860;54.284;10.158;2022-10-16T13:41:14;4.05;;;1.05;;
5674;SDS011;2860;54.284;10.158;2022-10-16T13:43:51;6.40;;;1.27;;
5674;SDS011;2860;54.284;10.158;2022-10-16T13:46:19;3.22;;;1.42;;
5674;SDS011;2860;54.284;10.158;2022-10-16T13:51:31;4.47;;;1.02;;
5674;SDS011;2860;54.284;10.158;2022-10-16T13:53:57;3.55;;;1.40;;
5674;SDS011;2860;54.284;10.158;2022-10-16T13:56:27;2.35;;;1.05;;
5674;SDS011;2860;54.284;10.158;2022-10-16T13:58:59;10.75;;;1.50;;
5674;SDS011;2860;54.284;10.158;2022-10-16T14:01:32;6.50;;;1.10;;
5674;SDS011;2860;54.284;10.158;2022-10-16T14:04:01;3.30;;;1.00;;
5674;SDS011;2860;54.284;10.158;2022-10-16T14:06:30;12.65;;;1.70;;
5674;SDS011;2860;54.284;10.158;2022-10-16T14:09:06;6.80;;;1.45;;
5674;SDS011;2860;54.284;10.158;2022-10-16T14:11:42;10.63;;;1.40;;
5674;SDS011;2860;54.284;10.158;2022-10-16T14:14:11;5.40;;;1.33;;
5674;SDS011;2860;54.284;10.158;2022-10-16T14:16:38;5.70;;;1.63;;
5674;SDS011;2860;54.284;10.158;2022-10-16T14:19:06;5.00;;;1.10;;
5674;SDS011;2860;54.284;10.158;2022-10-16T14:21:47;9.60;;;2.83;;
5674;SDS011;2860;54.284;10.158;2022-10-16T14:24:21;5.47;;;1.63;;
5674;SDS011;2860;54.284;10.158;2022-10-16T14:26:51;9.00;;;1.40;;
5674;SDS011;2860;54.284;10.158;2022-10-16T14:29:20;2.65;;;1.23;;
5674;SDS011;2860;54.284;10.158;2022-10-16T14:31:55;3.50;;;1.88;;
5674;SDS011;2860;54.284;10.158;2022-10-16T14:34:27;7.40;;;1.92;;
5674;SDS011;2860;54.284;10.158;2022-10-16T14:36:55;4.57;;;1.10;;
5674;SDS011;2860;54.284;10.158;2022-10-16T14:39:21;7.15;;;1.20;;
5674;SDS011;2860;54.284;10.158;2022-10-16T14:41:50;4.65;;;1.20;;
5674;SDS011;2860;54.284;10.158;2022-10-16T14:44:17;5.55;;;0.93;;
5674;SDS011;2860;54.284;10.158;2022-10-16T14:46:44;5.47;;;1.42;;
5674;SDS011;2860;54.284;10.158;2022-10-16T14:51:39;3.95;;;1.40;;
5674;SDS011;2860;54.284;10.158;2022-10-16T14:54:11;9.02;;;1.42;;
5674;SDS011;2860;54.284;10.158;2022-10-16T14:56:45;3.50;;;1.55;;
5674;SDS011;2860;54.284;10.158;2022-10-16T14:59:17;7.72;;;1.55;;
5674;SDS011;2860;54.284;10.158;2022-10-16T15:01:44;6.22;;;1.70;;
5674;SDS011;2860;54.284;10.158;2022-10-16T15:04:10;4.25;;;1.02;;
5674;SDS011;2860;54.284;10.158;2022-10-16T15:06:37;5.00;;;1.10;;
5674;SDS011;2860;54.284;10.158;2022-10-16T15:09:03;4.20;;;1.48;;
5674;SDS011;2860;54.284;10.158;2022-10-16T15:11:28;7.28;;;1.63;;
5674;SDS011;2860;54.284;10.158;2022-10-16T15:13:56;5.35;;;1.45;;
5674;SDS011;2860;54.284;10.158;2022-10-16T15:16:21;6.43;;;1.55;;
5674;SDS011;2860;54.284;10.158;2022-10-16T15:18:47;6.97;;;1.30;;
5674;SDS011;2860;54.284;10.158;2022-10-16T15:21:33;6.72;;;2.05;;
5674;SDS011;2860;54.284;10.158;2022-10-16T15:23:59;5.93;;;1.30;;
5674;SDS011;2860;54.284;10.158;2022-10-16T15:26:25;6.22;;;1.30;;
5674;SDS011;2860;54.284;10.158;2022-10-16T15:28:52;6.80;;;2.20;;
5674;SDS011;2860;54.284;10.158;2022-10-16T15:31:18;7.07;;;1.58;;
5674;SDS011;2860;54.284;10.158;2022-10-16T15:33:44;9.15;;;2.03;;
5674;SDS011;2860;54.284;10.158;2022-10-16T15:36:16;7.10;;;1.63;;
5674;SDS011;2860;54.284;10.158;2022-10-16T15:38:41;6.13;;;1.63;;
5674;SDS011;2860;54.284;10.158;2022-10-16T15:41:07;9.25;;;2.28;;
5674;SDS011;2860;54.284;10.158;2022-10-16T15:43:33;8.05;;;1.77;;
5674;SDS011;2860;54.284;10.158;2022-10-16T15:46:00;5.07;;;2.38;;
5674;SDS011;2860;54.284;10.158;2022-10-16T15:48:28;8.40;;;1.58;;
5674;SDS011;2860;54.284;10.158;2022-10-16T15:50:55;9.48;;;2.63;;
5674;SDS011;2860;54.284;10.158;2022-10-16T15:53:20;14.25;;;3.58;;
5674;SDS011;2860;54.284;10.158;2022-10-16T15:55:46;7.82;;;2.55;;
5674;SDS011;2860;54.284;10.158;2022-10-16T15:58:11;7.05;;;1.77;;
5674;SDS011;2860;54.284;10.158;2022-10-16T16:00:37;9.45;;;1.48;;
5674;SDS011;2860;54.284;10.158;2022-10-16T16:03:03;8.50;;;3.08;;
5674;SDS011;2860;54.284;10.158;2022-10-16T16:05:28;12.82;;;2.38;;
5674;SDS011;2860;54.284;10.158;2022-10-16T16:07:54;9.63;;;2.33;;
5674;SDS011;2860;54.284;10.158;2022-10-16T16:10:19;21.13;;;2.38;;
5674;SDS011;2860;54.284;10.158;2022-10-16T16:12:46;13.50;;;2.42;;
5674;SDS011;2860;54.284;10.158;2022-10-16T16:15:16;6.88;;;1.88;;
5674;SDS011;2860;54.284;10.158;2022-10-16T16:17:42;14.57;;;2.28;;
5674;SDS011;2860;54.284;10.158;2022-10-16T16:20:09;16.95;;;3.03;;
5674;SDS011;2860;54.284;10.158;2022-10-16T16:22:35;16.05;;;2.50;;
5674;SDS011;2860;54.284;10.158;2022-10-16T16:25:01;7.25;;;1.90;;
5674;SDS011;2860;54.284;10.158;2022-10-16T16:27:26;11.85;;;3.15;;
5674;SDS011;2860;54.284;10.158;2022-10-16T16:29:54;12.95;;;4.53;;
5674;SDS011;2860;54.284;10.158;2022-10-16T16:32:20;14.93;;;2.88;;
5674;SDS011;2860;54.284;10.158;2022-10-16T16:34:45;15.75;;;2.85;;
5674;SDS011;2860;54.284;10.158;2022-10-16T16:37:11;12.60;;;2.05;;
5674;SDS011;2860;54.284;10.158;2022-10-16T16:39:37;11.20;;;2.40;;